sensor_id;sensor_type;location;lat;lon;timestamp;temperature;humidity
22940;DHT22;11636;52.086;5.090;2023-05-19T00:02:07;10.10;99.90
22940;DHT22;11636;52.086;5.090;2023-05-19T00:05:01;10.00;99.90
22940;DHT22;11636;52.086;5.090;2023-05-19T00:07:49;10.00;99.90
22940;DHT22;11636;52.086;5.090;2023-05-19T00:10:44;10.00;99.90
22940;DHT22;11636;52.086;5.090;2023-05-19T00:13:38;9.90;99.90
22940;DHT22;11636;52.086;5.090;2023-05-19T00:16:32;9.90;99.90
22940;DHT22;11636;52.086;5.090;2023-05-19T00:19:27;9.80;99.90
22940;DHT22;11636;52.086;5.090;2023-05-19T00:22:18;9.80;99.90
22940;DHT22;11636;52.086;5.090;2023-05-19T00:25:12;9.80;99.90
22940;DHT22;11636;52.086;5.090;2023-05-19T00:27:59;9.80;99.90
22940;DHT22;11636;52.086;5.090;2023-05-19T00:30:54;9.70;99.90
22940;DHT22;11636;52.086;5.090;2023-05-19T00:33:42;9.70;99.90
22940;DHT22;11636;52.086;5.090;2023-05-19T00:36:35;9.70;99.90
22940;DHT22;11636;52.086;5.090;2023-05-19T00:39:22;9.70;99.90
22940;DHT22;11636;52.086;5.090;2023-05-19T00:42:16;9.60;99.90
22940;DHT22;11636;52.086;5.090;2023-05-19T00:45:10;9.60;99.90
22940;DHT22;11636;52.086;5.090;2023-05-19T00:47:57;9.60;99.90
22940;DHT22;11636;52.086;5.090;2023-05-19T00:50:56;9.60;99.90
22940;DHT22;11636;52.086;5.090;2023-05-19T00:53:50;9.50;99.90
22940;DHT22;11636;52.086;5.090;2023-05-19T00:56:44;9.50;99.90
22940;DHT22;11636;52.086;5.090;2023-05-19T00:59:31;9.40;99.90
22940;DHT22;11636;52.086;5.090;2023-05-19T01:02:25;9.40;99.90
22940;DHT22;11636;52.086;5.090;2023-05-19T01:05:16;9.40;99.90
22940;DHT22;11636;52.086;5.090;2023-05-19T01:08:10;9.40;99.90
22940;DHT22;11636;52.086;5.090;2023-05-19T01:11:05;9.40;99.90
22940;DHT22;11636;52.086;5.090;2023-05-19T01:13:59;9.30;99.90
22940;DHT22;11636;52.086;5.090;2023-05-19T01:20:39;9.30;99.90
22940;DHT22;11636;52.086;5.090;2023-05-19T01:23:45;9.30;99.90
22940;DHT22;11636;52.086;5.090;2023-05-19T01:30:16;9.30;99.90
22940;DHT22;11636;52.086;5.090;2023-05-19T01:33:13;9.20;99.90
22940;DHT22;11636;52.086;5.090;2023-05-19T01:36:02;9.20;99.90
22940;DHT22;11636;52.086;5.090;2023-05-19T01:38:57;9.10;99.90
22940;DHT22;11636;52.086;5.090;2023-05-19T01:41:51;9.20;99.90
22940;DHT22;11636;52.086;5.090;2023-05-19T01:44:40;9.10;99.90
22940;DHT22;11636;52.086;5.090;2023-05-19T01:47:35;9.10;99.90
22940;DHT22;11636;52.086;5.090;2023-05-19T01:50:26;9.10;99.90
22940;DHT22;11636;52.086;5.090;2023-05-19T01:53:20;9.10;99.90
22940;DHT22;11636;52.086;5.090;2023-05-19T01:56:08;9.00;99.90
22940;DHT22;11636;52.086;5.090;2023-05-19T01:59:13;9.00;99.90
22940;DHT22;11636;52.086;5.090;2023-05-19T02:02:35;9.00;99.90
22940;DHT22;11636;52.086;5.090;2023-05-19T02:05:57;9.00;99.90
22940;DHT22;11636;52.086;5.090;2023-05-19T02:09:14;9.00;99.90
22940;DHT22;11636;52.086;5.090;2023-05-19T02:15:10;8.90;99.90
22940;DHT22;11636;52.086;5.090;2023-05-19T02:18:05;8.90;99.90
22940;DHT22;11636;52.086;5.090;2023-05-19T02:20:55;8.90;99.90
22940;DHT22;11636;52.086;5.090;2023-05-19T02:23:49;8.80;99.90
22940;DHT22;11636;52.086;5.090;2023-05-19T02:26:43;8.90;99.90
22940;DHT22;11636;52.086;5.090;2023-05-19T02:29:37;8.80;99.90
22940;DHT22;11636;52.086;5.090;2023-05-19T02:32:32;8.80;99.90
22940;DHT22;11636;52.086;5.090;2023-05-19T02:35:25;8.80;99.90
22940;DHT22;11636;52.086;5.090;2023-05-19T02:38:13;8.80;99.90
22940;DHT22;11636;52.086;5.090;2023-05-19T02:41:07;8.80;99.90
22940;DHT22;11636;52.086;5.090;2023-05-19T02:44:01;8.70;99.90
22940;DHT22;11636;52.086;5.090;2023-05-19T02:46:48;8.70;99.90
22940;DHT22;11636;52.086;5.090;2023-05-19T02:49:42;8.70;99.90
22940;DHT22;11636;52.086;5.090;2023-05-19T02:52:30;8.70;99.90
22940;DHT22;11636;52.086;5.090;2023-05-19T02:55:23;8.70;99.90
22940;DHT22;11636;52.086;5.090;2023-05-19T02:58:10;8.70;99.90
22940;DHT22;11636;52.086;5.090;2023-05-19T03:01:04;8.70;99.90
22940;DHT22;11636;52.086;5.090;2023-05-19T03:03:58;8.70;99.90
22940;DHT22;11636;52.086;5.090;2023-05-19T03:06:52;8.60;99.90
22940;DHT22;11636;52.086;5.090;2023-05-19T03:09:43;8.60;99.90
22940;DHT22;11636;52.086;5.090;2023-05-19T03:12:43;8.60;99.90
22940;DHT22;11636;52.086;5.090;2023-05-19T03:15:37;8.60;99.90
22940;DHT22;11636;52.086;5.090;2023-05-19T03:18:38;8.60;99.90
22940;DHT22;11636;52.086;5.090;2023-05-19T03:21:32;8.50;99.90
22940;DHT22;11636;52.086;5.090;2023-05-19T03:24:26;8.50;99.90
22940;DHT22;11636;52.086;5.090;2023-05-19T03:27:13;8.50;99.90
22940;DHT22;11636;52.086;5.090;2023-05-19T03:30:08;8.50;99.90
22940;DHT22;11636;52.086;5.090;2023-05-19T03:33:01;8.50;99.90
22940;DHT22;11636;52.086;5.090;2023-05-19T03:35:49;8.50;99.90
22940;DHT22;11636;52.086;5.090;2023-05-19T03:38:42;8.50;99.90
22940;DHT22;11636;52.086;5.090;2023-05-19T03:41:36;8.40;99.90
22940;DHT22;11636;52.086;5.090;2023-05-19T03:44:23;8.40;99.90
22940;DHT22;11636;52.086;5.090;2023-05-19T03:47:17;8.40;99.90
22940;DHT22;11636;52.086;5.090;2023-05-19T03:50:11;8.40;99.90
22940;DHT22;11636;52.086;5.090;2023-05-19T03:52:59;8.40;99.90
22940;DHT22;11636;52.086;5.090;2023-05-19T03:56:00;8.40;99.90
22940;DHT22;11636;52.086;5.090;2023-05-19T03:58:47;8.40;99.90
22940;DHT22;11636;52.086;5.090;2023-05-19T04:01:42;8.40;99.90
22940;DHT22;11636;52.086;5.090;2023-05-19T04:04:36;8.40;99.90
22940;DHT22;11636;52.086;5.090;2023-05-19T04:07:24;8.40;99.90
22940;DHT22;11636;52.086;5.090;2023-05-19T04:10:18;8.40;99.90
22940;DHT22;11636;52.086;5.090;2023-05-19T04:13:06;8.50;99.90
22940;DHT22;11636;52.086;5.090;2023-05-19T04:16:00;8.40;99.90
22940;DHT22;11636;52.086;5.090;2023-05-19T04:18:54;8.50;99.90
22940;DHT22;11636;52.086;5.090;2023-05-19T04:21:49;8.50;99.90
22940;DHT22;11636;52.086;5.090;2023-05-19T04:24:43;8.50;99.90
22940;DHT22;11636;52.086;5.090;2023-05-19T04:27:38;8.40;99.90
22940;DHT22;11636;52.086;5.090;2023-05-19T04:30:32;8.50;99.90
22940;DHT22;11636;52.086;5.090;2023-05-19T04:33:26;8.50;99.90
22940;DHT22;11636;52.086;5.090;2023-05-19T04:36:15;8.50;99.90
22940;DHT22;11636;52.086;5.090;2023-05-19T04:39:12;8.50;99.90
22940;DHT22;11636;52.086;5.090;2023-05-19T04:42:06;8.50;99.90
22940;DHT22;11636;52.086;5.090;2023-05-19T04:44:54;8.50;99.90
22940;DHT22;11636;52.086;5.090;2023-05-19T04:47:48;8.60;99.90
22940;DHT22;11636;52.086;5.090;2023-05-19T04:50:42;8.60;99.90
22940;DHT22;11636;52.086;5.090;2023-05-19T04:53:36;8.60;99.90
22940;DHT22;11636;52.086;5.090;2023-05-19T04:56:26;8.60;99.90
22940;DHT22;11636;52.086;5.090;2023-05-19T04:59:21;8.70;99.90
22940;DHT22;11636;52.086;5.090;2023-05-19T05:02:15;8.70;99.90
22940;DHT22;11636;52.086;5.090;2023-05-19T05:05:03;8.70;99.90
22940;DHT22;11636;52.086;5.090;2023-05-19T05:07:57;8.70;99.90
22940;DHT22;11636;52.086;5.090;2023-05-19T05:10:45;8.80;99.90
22940;DHT22;11636;52.086;5.090;2023-05-19T05:13:39;8.80;99.90
22940;DHT22;11636;52.086;5.090;2023-05-19T05:16:26;8.80;99.90
22940;DHT22;11636;52.086;5.090;2023-05-19T05:19:20;8.90;99.90
22940;DHT22;11636;52.086;5.090;2023-05-19T05:22:08;8.90;99.90
22940;DHT22;11636;52.086;5.090;2023-05-19T05:25:03;8.90;99.90
22940;DHT22;11636;52.086;5.090;2023-05-19T05:27:56;9.00;99.90
22940;DHT22;11636;52.086;5.090;2023-05-19T05:30:51;9.00;99.90
22940;DHT22;11636;52.086;5.090;2023-05-19T05:33:45;9.00;99.90
22940;DHT22;11636;52.086;5.090;2023-05-19T05:36:32;9.10;99.90
22940;DHT22;11636;52.086;5.090;2023-05-19T05:39:27;9.10;99.90
22940;DHT22;11636;52.086;5.090;2023-05-19T05:42:14;9.20;99.90
22940;DHT22;11636;52.086;5.090;2023-05-19T05:45:08;9.20;99.90
22940;DHT22;11636;52.086;5.090;2023-05-19T05:47:56;9.20;99.90
22940;DHT22;11636;52.086;5.090;2023-05-19T05:50:51;9.30;99.90
22940;DHT22;11636;52.086;5.090;2023-05-19T05:53:43;9.40;99.90
22940;DHT22;11636;52.086;5.090;2023-05-19T05:56:39;9.40;99.90
22940;DHT22;11636;52.086;5.090;2023-05-19T05:59:33;9.40;99.90
22940;DHT22;11636;52.086;5.090;2023-05-19T06:02:20;9.50;99.90
22940;DHT22;11636;52.086;5.090;2023-05-19T06:05:15;9.50;99.90
22940;DHT22;11636;52.086;5.090;2023-05-19T06:08:02;9.60;99.90
22940;DHT22;11636;52.086;5.090;2023-05-19T06:10:56;9.60;99.90
22940;DHT22;11636;52.086;5.090;2023-05-19T06:13:50;9.70;99.90
22940;DHT22;11636;52.086;5.090;2023-05-19T06:16:37;9.80;99.90
22940;DHT22;11636;52.086;5.090;2023-05-19T06:19:32;9.80;99.90
22940;DHT22;11636;52.086;5.090;2023-05-19T06:22:19;9.90;99.90
22940;DHT22;11636;52.086;5.090;2023-05-19T06:25:12;10.00;99.90
22940;DHT22;11636;52.086;5.090;2023-05-19T06:28:06;10.00;99.90
22940;DHT22;11636;52.086;5.090;2023-05-19T06:30:53;10.10;99.90
22940;DHT22;11636;52.086;5.090;2023-05-19T06:33:47;10.20;99.90
22940;DHT22;11636;52.086;5.090;2023-05-19T06:36:34;10.30;99.90
22940;DHT22;11636;52.086;5.090;2023-05-19T06:39:28;10.40;99.90
22940;DHT22;11636;52.086;5.090;2023-05-19T06:42:15;10.40;99.90
22940;DHT22;11636;52.086;5.090;2023-05-19T06:45:09;10.50;99.90
22940;DHT22;11636;52.086;5.090;2023-05-19T06:47:57;10.60;99.90
22940;DHT22;11636;52.086;5.090;2023-05-19T06:50:50;10.70;99.90
22940;DHT22;11636;52.086;5.090;2023-05-19T06:53:38;10.80;99.90
22940;DHT22;11636;52.086;5.090;2023-05-19T06:56:31;10.80;99.90
22940;DHT22;11636;52.086;5.090;2023-05-19T06:59:19;11.00;99.90
22940;DHT22;11636;52.086;5.090;2023-05-19T07:02:14;11.10;99.90
22940;DHT22;11636;52.086;5.090;2023-05-19T07:05:08;11.20;99.90
22940;DHT22;11636;52.086;5.090;2023-05-19T07:07:56;11.30;99.90
22940;DHT22;11636;52.086;5.090;2023-05-19T07:10:49;11.40;99.90
22940;DHT22;11636;52.086;5.090;2023-05-19T07:13:43;11.60;99.90
22940;DHT22;11636;52.086;5.090;2023-05-19T07:16:31;11.80;99.90
22940;DHT22;11636;52.086;5.090;2023-05-19T07:19:25;11.90;99.90
22940;DHT22;11636;52.086;5.090;2023-05-19T07:22:12;12.10;99.90
22940;DHT22;11636;52.086;5.090;2023-05-19T07:25:06;12.30;99.90
22940;DHT22;11636;52.086;5.090;2023-05-19T07:27:54;12.50;99.90
22940;DHT22;11636;52.086;5.090;2023-05-19T07:30:47;12.70;99.90
22940;DHT22;11636;52.086;5.090;2023-05-19T07:33:42;12.80;99.90
22940;DHT22;11636;52.086;5.090;2023-05-19T07:36:29;12.90;99.90
22940;DHT22;11636;52.086;5.090;2023-05-19T07:39:23;13.00;99.90
22940;DHT22;11636;52.086;5.090;2023-05-19T07:42:13;13.10;99.90
22940;DHT22;11636;52.086;5.090;2023-05-19T07:45:07;13.20;99.90
22940;DHT22;11636;52.086;5.090;2023-05-19T07:47:54;13.30;99.90
22940;DHT22;11636;52.086;5.090;2023-05-19T07:50:50;13.40;99.90
22940;DHT22;11636;52.086;5.090;2023-05-19T07:53:37;13.50;99.90
22940;DHT22;11636;52.086;5.090;2023-05-19T07:56:30;13.60;99.90
22940;DHT22;11636;52.086;5.090;2023-05-19T07:59:18;13.70;99.90
22940;DHT22;11636;52.086;5.090;2023-05-19T08:02:11;13.70;99.90
22940;DHT22;11636;52.086;5.090;2023-05-19T08:04:59;13.80;99.90
22940;DHT22;11636;52.086;5.090;2023-05-19T08:07:53;13.90;99.90
22940;DHT22;11636;52.086;5.090;2023-05-19T08:10:46;13.90;99.90
22940;DHT22;11636;52.086;5.090;2023-05-19T08:13:34;13.90;99.90
22940;DHT22;11636;52.086;5.090;2023-05-19T08:16:28;14.00;99.90
22940;DHT22;11636;52.086;5.090;2023-05-19T08:19:22;14.00;99.90
22940;DHT22;11636;52.086;5.090;2023-05-19T08:22:09;14.10;99.90
22940;DHT22;11636;52.086;5.090;2023-05-19T08:25:03;14.30;99.90
22940;DHT22;11636;52.086;5.090;2023-05-19T08:27:51;14.40;99.90
22940;DHT22;11636;52.086;5.090;2023-05-19T08:30:45;14.50;99.90
22940;DHT22;11636;52.086;5.090;2023-05-19T08:33:39;14.50;99.90
22940;DHT22;11636;52.086;5.090;2023-05-19T08:36:33;14.70;99.90
22940;DHT22;11636;52.086;5.090;2023-05-19T08:39:27;14.80;99.90
22940;DHT22;11636;52.086;5.090;2023-05-19T08:42:14;14.90;99.90
22940;DHT22;11636;52.086;5.090;2023-05-19T08:45:08;15.10;99.90
22940;DHT22;11636;52.086;5.090;2023-05-19T08:47:55;15.20;99.90
22940;DHT22;11636;52.086;5.090;2023-05-19T08:51:12;15.40;99.90
22940;DHT22;11636;52.086;5.090;2023-05-19T08:54:14;15.50;99.90
22940;DHT22;11636;52.086;5.090;2023-05-19T08:57:08;15.60;99.90
22940;DHT22;11636;52.086;5.090;2023-05-19T09:00:03;15.80;99.90
22940;DHT22;11636;52.086;5.090;2023-05-19T09:03:02;16.00;99.90
22940;DHT22;11636;52.086;5.090;2023-05-19T09:06:09;16.20;99.90
22940;DHT22;11636;52.086;5.090;2023-05-19T09:08:59;16.50;99.90
22940;DHT22;11636;52.086;5.090;2023-05-19T09:11:53;16.80;99.90
22940;DHT22;11636;52.086;5.090;2023-05-19T09:14:40;17.10;99.90
22940;DHT22;11636;52.086;5.090;2023-05-19T09:17:34;17.20;99.90
22940;DHT22;11636;52.086;5.090;2023-05-19T09:20:22;17.40;99.90
22940;DHT22;11636;52.086;5.090;2023-05-19T09:23:16;17.40;99.90
22940;DHT22;11636;52.086;5.090;2023-05-19T09:26:11;17.60;99.90
22940;DHT22;11636;52.086;5.090;2023-05-19T09:28:58;17.80;99.90
22940;DHT22;11636;52.086;5.090;2023-05-19T09:31:53;17.90;99.70
22940;DHT22;11636;52.086;5.090;2023-05-19T09:34:42;18.00;98.70
22940;DHT22;11636;52.086;5.090;2023-05-19T09:37:39;18.10;97.70
22940;DHT22;11636;52.086;5.090;2023-05-19T09:40:29;18.10;97.00
22940;DHT22;11636;52.086;5.090;2023-05-19T09:43:27;18.10;97.10
22940;DHT22;11636;52.086;5.090;2023-05-19T09:46:15;18.10;96.30
22940;DHT22;11636;52.086;5.090;2023-05-19T09:49:09;18.10;96.60
22940;DHT22;11636;52.086;5.090;2023-05-19T09:52:03;18.30;96.40
22940;DHT22;11636;52.086;5.090;2023-05-19T09:54:58;18.30;95.40
22940;DHT22;11636;52.086;5.090;2023-05-19T09:57:46;18.30;95.00
22940;DHT22;11636;52.086;5.090;2023-05-19T10:00:40;18.30;95.30
22940;DHT22;11636;52.086;5.090;2023-05-19T10:03:29;18.30;95.80
22940;DHT22;11636;52.086;5.090;2023-05-19T10:06:25;18.50;95.80
22940;DHT22;11636;52.086;5.090;2023-05-19T10:09:13;18.70;95.10
22940;DHT22;11636;52.086;5.090;2023-05-19T10:12:08;18.80;94.10
22940;DHT22;11636;52.086;5.090;2023-05-19T10:14:57;18.70;94.50
22940;DHT22;11636;52.086;5.090;2023-05-19T10:17:52;18.90;94.30
22940;DHT22;11636;52.086;5.090;2023-05-19T10:20:40;19.10;94.30
22940;DHT22;11636;52.086;5.090;2023-05-19T10:23:35;19.30;93.00
22940;DHT22;11636;52.086;5.090;2023-05-19T10:26:29;19.40;92.20
22940;DHT22;11636;52.086;5.090;2023-05-19T10:29:25;19.50;91.30
22940;DHT22;11636;52.086;5.090;2023-05-19T10:32:23;19.60;90.10
22940;DHT22;11636;52.086;5.090;2023-05-19T10:45:12;19.70;85.20
22940;DHT22;11636;52.086;5.090;2023-05-19T10:47:53;19.70;84.30
22940;DHT22;11636;52.086;5.090;2023-05-19T10:50:47;19.80;84.80
22940;DHT22;11636;52.086;5.090;2023-05-19T10:53:42;19.90;82.60
22940;DHT22;11636;52.086;5.090;2023-05-19T10:56:43;20.00;82.70
22940;DHT22;11636;52.086;5.090;2023-05-19T10:59:40;20.20;83.30
22940;DHT22;11636;52.086;5.090;2023-05-19T11:02:41;20.40;82.70
22940;DHT22;11636;52.086;5.090;2023-05-19T11:05:35;20.60;80.60
22940;DHT22;11636;52.086;5.090;2023-05-19T11:08:33;20.70;79.40
22940;DHT22;11636;52.086;5.090;2023-05-19T11:11:20;20.90;80.40
22940;DHT22;11636;52.086;5.090;2023-05-19T11:14:18;21.00;80.00
22940;DHT22;11636;52.086;5.090;2023-05-19T11:17:12;20.90;78.30
22940;DHT22;11636;52.086;5.090;2023-05-19T11:20:08;20.70;77.90
22940;DHT22;11636;52.086;5.090;2023-05-19T11:26:01;20.70;78.40
22940;DHT22;11636;52.086;5.090;2023-05-19T11:28:48;20.70;78.70
22940;DHT22;11636;52.086;5.090;2023-05-19T11:31:42;20.70;75.40
22940;DHT22;11636;52.086;5.090;2023-05-19T11:34:30;20.70;75.30
22940;DHT22;11636;52.086;5.090;2023-05-19T11:37:24;20.80;76.40
22940;DHT22;11636;52.086;5.090;2023-05-19T11:40:20;21.00;75.90
22940;DHT22;11636;52.086;5.090;2023-05-19T11:43:07;20.90;75.70
22940;DHT22;11636;52.086;5.090;2023-05-19T11:46:01;21.10;77.00
22940;DHT22;11636;52.086;5.090;2023-05-19T11:48:48;21.20;74.70
22940;DHT22;11636;52.086;5.090;2023-05-19T11:51:43;21.40;74.90
22940;DHT22;11636;52.086;5.090;2023-05-19T11:54:32;21.80;74.80
22940;DHT22;11636;52.086;5.090;2023-05-19T11:57:27;22.00;74.20
22940;DHT22;11636;52.086;5.090;2023-05-19T12:00:14;22.30;73.90
22940;DHT22;11636;52.086;5.090;2023-05-19T12:03:08;22.60;71.80
22940;DHT22;11636;52.086;5.090;2023-05-19T12:05:56;22.70;70.20
22940;DHT22;11636;52.086;5.090;2023-05-19T12:08:50;22.90;70.80
22940;DHT22;11636;52.086;5.090;2023-05-19T12:11:46;23.20;70.10
22940;DHT22;11636;52.086;5.090;2023-05-19T12:14:34;23.30;68.90
22940;DHT22;11636;52.086;5.090;2023-05-19T12:17:31;23.20;66.60
22940;DHT22;11636;52.086;5.090;2023-05-19T12:20:18;23.10;65.80
22940;DHT22;11636;52.086;5.090;2023-05-19T12:23:12;23.30;67.30
22940;DHT22;11636;52.086;5.090;2023-05-19T12:26:00;23.20;65.80
22940;DHT22;11636;52.086;5.090;2023-05-19T12:28:54;23.10;64.70
22940;DHT22;11636;52.086;5.090;2023-05-19T12:31:45;23.00;65.00
22940;DHT22;11636;52.086;5.090;2023-05-19T12:34:39;23.10;64.60
22940;DHT22;11636;52.086;5.090;2023-05-19T12:37:36;23.10;64.80
22940;DHT22;11636;52.086;5.090;2023-05-19T12:40:34;23.20;63.00
22940;DHT22;11636;52.086;5.090;2023-05-19T12:43:28;23.30;64.50
22940;DHT22;11636;52.086;5.090;2023-05-19T12:46:22;23.30;63.90
22940;DHT22;11636;52.086;5.090;2023-05-19T12:49:16;23.20;63.30
22940;DHT22;11636;52.086;5.090;2023-05-19T12:52:03;23.10;64.20
22940;DHT22;11636;52.086;5.090;2023-05-19T12:55:03;23.10;63.60
22940;DHT22;11636;52.086;5.090;2023-05-19T12:57:52;22.90;62.90
22940;DHT22;11636;52.086;5.090;2023-05-19T13:00:57;22.90;63.40
22940;DHT22;11636;52.086;5.090;2023-05-19T13:03:51;23.00;62.10
22940;DHT22;11636;52.086;5.090;2023-05-19T13:06:46;22.80;62.10
22940;DHT22;11636;52.086;5.090;2023-05-19T13:09:35;22.70;63.00
22940;DHT22;11636;52.086;5.090;2023-05-19T13:12:29;22.60;64.80
22940;DHT22;11636;52.086;5.090;2023-05-19T13:15:16;22.70;64.90
22940;DHT22;11636;52.086;5.090;2023-05-19T13:18:11;22.70;65.60
22940;DHT22;11636;52.086;5.090;2023-05-19T13:21:05;22.80;64.30
22940;DHT22;11636;52.086;5.090;2023-05-19T13:23:59;22.90;65.20
22940;DHT22;11636;52.086;5.090;2023-05-19T13:26:46;23.00;63.30
22940;DHT22;11636;52.086;5.090;2023-05-19T13:29:41;22.80;63.60
22940;DHT22;11636;52.086;5.090;2023-05-19T13:32:35;22.50;64.90
22940;DHT22;11636;52.086;5.090;2023-05-19T13:35:22;22.40;66.60
22940;DHT22;11636;52.086;5.090;2023-05-19T13:38:16;22.50;65.00
22940;DHT22;11636;52.086;5.090;2023-05-19T13:41:03;22.30;64.00
22940;DHT22;11636;52.086;5.090;2023-05-19T13:43:59;22.40;64.40
22940;DHT22;11636;52.086;5.090;2023-05-19T13:46:53;22.60;64.50
22940;DHT22;11636;52.086;5.090;2023-05-19T13:49:47;22.90;64.20
22940;DHT22;11636;52.086;5.090;2023-05-19T13:52:40;23.10;62.40
22940;DHT22;11636;52.086;5.090;2023-05-19T13:55:34;23.20;62.80
22940;DHT22;11636;52.086;5.090;2023-05-19T13:58:35;23.40;63.20
22940;DHT22;11636;52.086;5.090;2023-05-19T14:01:22;23.60;61.50
22940;DHT22;11636;52.086;5.090;2023-05-19T14:04:17;23.60;62.00
22940;DHT22;11636;52.086;5.090;2023-05-19T14:07:11;23.70;61.10
22940;DHT22;11636;52.086;5.090;2023-05-19T14:09:58;23.70;60.60
22940;DHT22;11636;52.086;5.090;2023-05-19T14:12:52;23.50;60.40
22940;DHT22;11636;52.086;5.090;2023-05-19T14:15:49;23.20;60.30
22940;DHT22;11636;52.086;5.090;2023-05-19T14:18:36;23.10;61.50
22940;DHT22;11636;52.086;5.090;2023-05-19T14:21:30;23.20;61.90
22940;DHT22;11636;52.086;5.090;2023-05-19T14:24:18;23.40;61.60
22940;DHT22;11636;52.086;5.090;2023-05-19T14:27:12;23.50;60.40
22940;DHT22;11636;52.086;5.090;2023-05-19T14:30:07;23.50;60.40
22940;DHT22;11636;52.086;5.090;2023-05-19T14:33:00;23.50;60.50
22940;DHT22;11636;52.086;5.090;2023-05-19T14:35:47;23.60;60.70
22940;DHT22;11636;52.086;5.090;2023-05-19T14:38:41;23.60;59.30
22940;DHT22;11636;52.086;5.090;2023-05-19T14:41:28;23.40;59.50
22940;DHT22;11636;52.086;5.090;2023-05-19T14:44:22;23.20;60.30
22940;DHT22;11636;52.086;5.090;2023-05-19T14:47:16;23.00;60.70
22940;DHT22;11636;52.086;5.090;2023-05-19T14:50:13;22.80;61.40
22940;DHT22;11636;52.086;5.090;2023-05-19T14:53:06;22.80;62.00
22940;DHT22;11636;52.086;5.090;2023-05-19T14:55:53;23.00;62.00
22940;DHT22;11636;52.086;5.090;2023-05-19T14:58:47;23.00;61.30
22940;DHT22;11636;52.086;5.090;2023-05-19T15:01:34;22.90;60.20
22940;DHT22;11636;52.086;5.090;2023-05-19T15:04:28;22.70;60.70
22940;DHT22;11636;52.086;5.090;2023-05-19T15:07:16;22.60;60.60
22940;DHT22;11636;52.086;5.090;2023-05-19T15:10:09;22.60;60.60
22940;DHT22;11636;52.086;5.090;2023-05-19T15:12:57;22.80;61.10
22940;DHT22;11636;52.086;5.090;2023-05-19T15:15:53;23.00;61.40
22940;DHT22;11636;52.086;5.090;2023-05-19T15:19:01;23.20;62.10
22940;DHT22;11636;52.086;5.090;2023-05-19T15:21:54;23.40;60.10
22940;DHT22;11636;52.086;5.090;2023-05-19T15:24:41;23.50;59.60
22940;DHT22;11636;52.086;5.090;2023-05-19T15:27:35;23.50;59.60
22940;DHT22;11636;52.086;5.090;2023-05-19T15:30:30;23.60;59.10
22940;DHT22;11636;52.086;5.090;2023-05-19T15:33:24;23.60;59.70
22940;DHT22;11636;52.086;5.090;2023-05-19T15:36:11;23.30;60.90
22940;DHT22;11636;52.086;5.090;2023-05-19T15:39:08;23.30;61.60
22940;DHT22;11636;52.086;5.090;2023-05-19T15:41:56;23.40;61.40
22940;DHT22;11636;52.086;5.090;2023-05-19T15:44:49;23.60;60.70
22940;DHT22;11636;52.086;5.090;2023-05-19T15:47:36;23.70;59.40
22940;DHT22;11636;52.086;5.090;2023-05-19T15:50:30;24.00;59.00
22940;DHT22;11636;52.086;5.090;2023-05-19T15:53:24;23.90;59.40
22940;DHT22;11636;52.086;5.090;2023-05-19T15:56:12;23.90;59.90
22940;DHT22;11636;52.086;5.090;2023-05-19T15:59:08;23.60;59.90
22940;DHT22;11636;52.086;5.090;2023-05-19T16:01:56;23.30;61.10
22940;DHT22;11636;52.086;5.090;2023-05-19T16:04:49;23.20;61.70
22940;DHT22;11636;52.086;5.090;2023-05-19T16:07:36;23.20;61.50
22940;DHT22;11636;52.086;5.090;2023-05-19T16:10:30;23.10;62.20
22940;DHT22;11636;52.086;5.090;2023-05-19T16:13:24;23.00;62.70
22940;DHT22;11636;52.086;5.090;2023-05-19T16:16:12;23.10;62.40
22940;DHT22;11636;52.086;5.090;2023-05-19T16:19:05;23.00;61.90
22940;DHT22;11636;52.086;5.090;2023-05-19T16:21:59;22.90;62.20
22940;DHT22;11636;52.086;5.090;2023-05-19T16:24:53;22.80;61.90
22940;DHT22;11636;52.086;5.090;2023-05-19T16:27:40;22.60;61.70
22940;DHT22;11636;52.086;5.090;2023-05-19T16:30:34;22.60;62.30
22940;DHT22;11636;52.086;5.090;2023-05-19T16:33:28;22.60;62.40
22940;DHT22;11636;52.086;5.090;2023-05-19T16:36:16;22.30;63.80
22940;DHT22;11636;52.086;5.090;2023-05-19T16:39:09;22.10;65.60
22940;DHT22;11636;52.086;5.090;2023-05-19T16:41:57;22.00;66.50
22940;DHT22;11636;52.086;5.090;2023-05-19T16:44:50;21.80;65.90
22940;DHT22;11636;52.086;5.090;2023-05-19T16:47:37;21.60;66.10
22940;DHT22;11636;52.086;5.090;2023-05-19T16:50:36;21.50;66.60
22940;DHT22;11636;52.086;5.090;2023-05-19T16:53:23;21.40;66.80
22940;DHT22;11636;52.086;5.090;2023-05-19T16:56:17;21.20;68.20
22940;DHT22;11636;52.086;5.090;2023-05-19T16:59:06;21.00;70.70
22940;DHT22;11636;52.086;5.090;2023-05-19T17:01:59;20.80;72.30
22940;DHT22;11636;52.086;5.090;2023-05-19T17:04:47;20.60;73.10
22940;DHT22;11636;52.086;5.090;2023-05-19T17:07:40;20.40;74.30
22940;DHT22;11636;52.086;5.090;2023-05-19T17:10:34;20.30;76.20
22940;DHT22;11636;52.086;5.090;2023-05-19T17:13:24;20.10;78.20
22940;DHT22;11636;52.086;5.090;2023-05-19T17:16:17;19.90;80.10
22940;DHT22;11636;52.086;5.090;2023-05-19T17:19:05;19.70;81.60
22940;DHT22;11636;52.086;5.090;2023-05-19T17:21:58;19.50;83.10
22940;DHT22;11636;52.086;5.090;2023-05-19T17:24:46;19.40;83.50
22940;DHT22;11636;52.086;5.090;2023-05-19T17:27:39;19.30;83.70
22940;DHT22;11636;52.086;5.090;2023-05-19T17:30:26;19.30;83.90
22940;DHT22;11636;52.086;5.090;2023-05-19T17:33:21;19.30;84.60
22940;DHT22;11636;52.086;5.090;2023-05-19T17:36:08;19.20;84.40
22940;DHT22;11636;52.086;5.090;2023-05-19T17:39:01;19.20;84.40
22940;DHT22;11636;52.086;5.090;2023-05-19T17:41:49;19.10;85.30
22940;DHT22;11636;52.086;5.090;2023-05-19T17:44:43;19.00;86.60
22940;DHT22;11636;52.086;5.090;2023-05-19T17:47:37;18.80;88.10
22940;DHT22;11636;52.086;5.090;2023-05-19T17:50:24;18.70;89.40
22940;DHT22;11636;52.086;5.090;2023-05-19T17:53:19;18.50;90.10
22940;DHT22;11636;52.086;5.090;2023-05-19T17:56:07;18.40;90.60
22940;DHT22;11636;52.086;5.090;2023-05-19T17:59:04;18.40;91.10
22940;DHT22;11636;52.086;5.090;2023-05-19T18:01:51;18.30;91.30
22940;DHT22;11636;52.086;5.090;2023-05-19T18:04:45;18.20;91.50
22940;DHT22;11636;52.086;5.090;2023-05-19T18:07:36;18.10;91.90
22940;DHT22;11636;52.086;5.090;2023-05-19T18:10:35;18.10;92.30
22940;DHT22;11636;52.086;5.090;2023-05-19T18:13:23;18.00;92.80
22940;DHT22;11636;52.086;5.090;2023-05-19T18:16:18;17.90;93.30
22940;DHT22;11636;52.086;5.090;2023-05-19T18:19:06;17.80;93.70
22940;DHT22;11636;52.086;5.090;2023-05-19T18:22:00;17.80;94.10
22940;DHT22;11636;52.086;5.090;2023-05-19T18:24:54;17.70;94.50
22940;DHT22;11636;52.086;5.090;2023-05-19T18:28:06;17.70;94.90
22940;DHT22;11636;52.086;5.090;2023-05-19T18:31:17;17.60;95.60
22940;DHT22;11636;52.086;5.090;2023-05-19T18:34:06;17.50;96.40
22940;DHT22;11636;52.086;5.090;2023-05-19T18:37:01;17.40;97.00
22940;DHT22;11636;52.086;5.090;2023-05-19T18:39:49;17.40;97.90